sensor_id;sensor_type;location;lat;lon;timestamp;temperature;humidity
62363;DHT22;48396;48.426;1.500;2023-03-01T00:01:53;7.30;54.30
62363;DHT22;48396;48.426;1.500;2023-03-01T00:04:19;7.20;54.40
62363;DHT22;48396;48.426;1.500;2023-03-01T00:06:45;7.00;54.70
62363;DHT22;48396;48.426;1.500;2023-03-01T00:09:13;6.90;55.00
62363;DHT22;48396;48.426;1.500;2023-03-01T00:11:38;6.90;55.10
62363;DHT22;48396;48.426;1.500;2023-03-01T00:14:04;7.00;55.10
62363;DHT22;48396;48.426;1.500;2023-03-01T00:16:35;6.90;55.20
62363;DHT22;48396;48.426;1.500;2023-03-01T00:19:01;7.00;55.10
62363;DHT22;48396;48.426;1.500;2023-03-01T00:21:27;6.90;55.10
62363;DHT22;48396;48.426;1.500;2023-03-01T00:23:54;6.90;55.30
62363;DHT22;48396;48.426;1.500;2023-03-01T00:26:22;6.90;55.20
62363;DHT22;48396;48.426;1.500;2023-03-01T00:28:48;6.90;55.10
62363;DHT22;48396;48.426;1.500;2023-03-01T00:31:19;6.80;55.40
62363;DHT22;48396;48.426;1.500;2023-03-01T00:33:45;6.80;55.30
62363;DHT22;48396;48.426;1.500;2023-03-01T00:36:13;6.80;55.40
62363;DHT22;48396;48.426;1.500;2023-03-01T00:38:41;7.00;55.20
62363;DHT22;48396;48.426;1.500;2023-03-01T00:41:10;7.10;55.00
62363;DHT22;48396;48.426;1.500;2023-03-01T00:43:36;7.10;55.00
62363;DHT22;48396;48.426;1.500;2023-03-01T00:46:08;7.00;55.00
62363;DHT22;48396;48.426;1.500;2023-03-01T00:48:34;7.00;55.10
62363;DHT22;48396;48.426;1.500;2023-03-01T00:51:11;7.10;55.00
62363;DHT22;48396;48.426;1.500;2023-03-01T00:53:38;6.90;55.30
62363;DHT22;48396;48.426;1.500;2023-03-01T00:56:06;6.80;55.40
62363;DHT22;48396;48.426;1.500;2023-03-01T00:58:33;6.90;55.40
62363;DHT22;48396;48.426;1.500;2023-03-01T01:00:59;6.80;55.40
62363;DHT22;48396;48.426;1.500;2023-03-01T01:03:25;6.50;56.20
62363;DHT22;48396;48.426;1.500;2023-03-01T01:05:52;6.50;56.00
62363;DHT22;48396;48.426;1.500;2023-03-01T01:08:19;6.50;56.30
62363;DHT22;48396;48.426;1.500;2023-03-01T01:10:46;6.50;56.10
62363;DHT22;48396;48.426;1.500;2023-03-01T01:13:12;6.30;56.40
62363;DHT22;48396;48.426;1.500;2023-03-01T01:15:38;6.30;56.50
62363;DHT22;48396;48.426;1.500;2023-03-01T01:18:04;6.50;56.20
62363;DHT22;48396;48.426;1.500;2023-03-01T01:20:30;6.50;56.10
62363;DHT22;48396;48.426;1.500;2023-03-01T01:22:56;6.40;56.20
62363;DHT22;48396;48.426;1.500;2023-03-01T01:25:22;6.40;56.30
62363;DHT22;48396;48.426;1.500;2023-03-01T01:27:50;6.10;56.70
62363;DHT22;48396;48.426;1.500;2023-03-01T01:30:16;6.10;56.90
62363;DHT22;48396;48.426;1.500;2023-03-01T01:32:42;6.20;56.70
62363;DHT22;48396;48.426;1.500;2023-03-01T01:35:08;6.40;56.50
62363;DHT22;48396;48.426;1.500;2023-03-01T01:37:34;6.30;56.50
62363;DHT22;48396;48.426;1.500;2023-03-01T01:40:01;6.30;56.40
62363;DHT22;48396;48.426;1.500;2023-03-01T01:42:30;6.10;56.90
62363;DHT22;48396;48.426;1.500;2023-03-01T01:45:34;6.10;56.90
62363;DHT22;48396;48.426;1.500;2023-03-01T01:48:07;6.20;56.60
62363;DHT22;48396;48.426;1.500;2023-03-01T01:50:39;6.00;57.00
62363;DHT22;48396;48.426;1.500;2023-03-01T01:53:10;6.10;57.10
62363;DHT22;48396;48.426;1.500;2023-03-01T01:55:39;6.10;57.50
62363;DHT22;48396;48.426;1.500;2023-03-01T01:58:09;6.10;57.10
62363;DHT22;48396;48.426;1.500;2023-03-01T02:00:37;6.20;56.70
62363;DHT22;48396;48.426;1.500;2023-03-01T02:03:13;6.20;56.70
62363;DHT22;48396;48.426;1.500;2023-03-01T02:06:04;6.20;56.80
62363;DHT22;48396;48.426;1.500;2023-03-01T02:08:35;6.20;56.80
62363;DHT22;48396;48.426;1.500;2023-03-01T02:11:02;6.20;56.70
62363;DHT22;48396;48.426;1.500;2023-03-01T02:13:31;6.30;56.60
62363;DHT22;48396;48.426;1.500;2023-03-01T02:15:58;6.10;56.90
62363;DHT22;48396;48.426;1.500;2023-03-01T02:18:24;6.10;56.90
62363;DHT22;48396;48.426;1.500;2023-03-01T02:21:08;6.10;57.00
62363;DHT22;48396;48.426;1.500;2023-03-01T02:23:38;6.00;57.20
62363;DHT22;48396;48.426;1.500;2023-03-01T02:28:45;6.10;57.10
62363;DHT22;48396;48.426;1.500;2023-03-01T02:31:16;6.10;57.00
62363;DHT22;48396;48.426;1.500;2023-03-01T02:34:01;6.10;56.90
62363;DHT22;48396;48.426;1.500;2023-03-01T02:36:37;5.90;57.30
62363;DHT22;48396;48.426;1.500;2023-03-01T02:39:06;6.00;57.30
62363;DHT22;48396;48.426;1.500;2023-03-01T02:41:36;6.10;57.20
62363;DHT22;48396;48.426;1.500;2023-03-01T02:44:04;6.20;56.70
62363;DHT22;48396;48.426;1.500;2023-03-01T02:46:31;6.20;56.60
62363;DHT22;48396;48.426;1.500;2023-03-01T02:48:58;6.10;56.90
62363;DHT22;48396;48.426;1.500;2023-03-01T02:52:07;6.10;57.00
62363;DHT22;48396;48.426;1.500;2023-03-01T02:54:50;6.00;57.20
62363;DHT22;48396;48.426;1.500;2023-03-01T02:57:19;5.80;57.70
62363;DHT22;48396;48.426;1.500;2023-03-01T02:59:47;5.90;57.60
62363;DHT22;48396;48.426;1.500;2023-03-01T03:02:21;6.10;57.30
62363;DHT22;48396;48.426;1.500;2023-03-01T03:05:05;6.00;57.30
62363;DHT22;48396;48.426;1.500;2023-03-01T03:07:33;5.80;57.80
62363;DHT22;48396;48.426;1.500;2023-03-01T03:10:00;5.50;58.60
62363;DHT22;48396;48.426;1.500;2023-03-01T03:12:25;5.40;58.80
62363;DHT22;48396;48.426;1.500;2023-03-01T03:14:51;5.50;58.50
62363;DHT22;48396;48.426;1.500;2023-03-01T03:17:17;5.60;58.50
62363;DHT22;48396;48.426;1.500;2023-03-01T03:19:43;5.60;58.40
62363;DHT22;48396;48.426;1.500;2023-03-01T03:22:14;5.70;58.50
62363;DHT22;48396;48.426;1.500;2023-03-01T03:24:40;5.70;58.50
62363;DHT22;48396;48.426;1.500;2023-03-01T03:27:06;5.70;58.50
62363;DHT22;48396;48.426;1.500;2023-03-01T03:29:32;5.50;58.80
62363;DHT22;48396;48.426;1.500;2023-03-01T03:31:58;5.60;58.90
62363;DHT22;48396;48.426;1.500;2023-03-01T03:34:24;5.70;58.50
62363;DHT22;48396;48.426;1.500;2023-03-01T03:36:55;5.70;58.50
62363;DHT22;48396;48.426;1.500;2023-03-01T03:39:26;5.70;58.80
62363;DHT22;48396;48.426;1.500;2023-03-01T03:41:53;5.60;58.90
62363;DHT22;48396;48.426;1.500;2023-03-01T03:44:20;5.40;59.30
62363;DHT22;48396;48.426;1.500;2023-03-01T03:46:46;5.40;59.40
62363;DHT22;48396;48.426;1.500;2023-03-01T03:49:11;5.30;59.70
62363;DHT22;48396;48.426;1.500;2023-03-01T03:51:37;5.50;59.30
62363;DHT22;48396;48.426;1.500;2023-03-01T03:54:03;5.70;59.00
62363;DHT22;48396;48.426;1.500;2023-03-01T03:56:29;5.80;58.80
62363;DHT22;48396;48.426;1.500;2023-03-01T03:58:55;5.60;59.20
62363;DHT22;48396;48.426;1.500;2023-03-01T04:01:21;5.70;58.90
62363;DHT22;48396;48.426;1.500;2023-03-01T04:03:46;5.60;59.00
62363;DHT22;48396;48.426;1.500;2023-03-01T04:06:15;5.60;59.20
62363;DHT22;48396;48.426;1.500;2023-03-01T04:08:41;5.60;59.20
62363;DHT22;48396;48.426;1.500;2023-03-01T04:11:07;5.60;59.20
62363;DHT22;48396;48.426;1.500;2023-03-01T04:13:53;5.70;59.00
62363;DHT22;48396;48.426;1.500;2023-03-01T04:16:20;5.60;59.10
62363;DHT22;48396;48.426;1.500;2023-03-01T04:18:46;5.50;59.30
62363;DHT22;48396;48.426;1.500;2023-03-01T04:21:12;5.40;59.60
62363;DHT22;48396;48.426;1.500;2023-03-01T04:23:38;5.50;59.50
62363;DHT22;48396;48.426;1.500;2023-03-01T04:26:04;5.40;59.80
62363;DHT22;48396;48.426;1.500;2023-03-01T04:28:33;5.00;60.60
62363;DHT22;48396;48.426;1.500;2023-03-01T04:31:05;5.00;61.10
62363;DHT22;48396;48.426;1.500;2023-03-01T04:33:43;5.10;60.80
62363;DHT22;48396;48.426;1.500;2023-03-01T04:36:13;5.20;60.60
62363;DHT22;48396;48.426;1.500;2023-03-01T04:38:39;5.20;60.50
62363;DHT22;48396;48.426;1.500;2023-03-01T04:41:07;5.20;60.40
62363;DHT22;48396;48.426;1.500;2023-03-01T04:43:33;5.40;59.90
62363;DHT22;48396;48.426;1.500;2023-03-01T04:46:04;5.30;60.00
62363;DHT22;48396;48.426;1.500;2023-03-01T04:48:32;5.30;60.30
62363;DHT22;48396;48.426;1.500;2023-03-01T04:50:59;5.10;60.70
62363;DHT22;48396;48.426;1.500;2023-03-01T04:53:26;5.30;60.20
62363;DHT22;48396;48.426;1.500;2023-03-01T04:55:53;5.30;60.40
62363;DHT22;48396;48.426;1.500;2023-03-01T04:58:19;5.30;60.40
62363;DHT22;48396;48.426;1.500;2023-03-01T05:00:45;5.20;60.30
62363;DHT22;48396;48.426;1.500;2023-03-01T05:03:11;5.00;60.90
62363;DHT22;48396;48.426;1.500;2023-03-01T05:05:38;5.00;61.20
62363;DHT22;48396;48.426;1.500;2023-03-01T05:08:07;5.00;61.20
62363;DHT22;48396;48.426;1.500;2023-03-01T05:10:35;4.80;61.60
62363;DHT22;48396;48.426;1.500;2023-03-01T05:13:04;4.80;61.70
62363;DHT22;48396;48.426;1.500;2023-03-01T05:15:31;5.10;61.00
62363;DHT22;48396;48.426;1.500;2023-03-01T05:17:59;5.30;60.60
62363;DHT22;48396;48.426;1.500;2023-03-01T05:20:26;5.20;60.80
62363;DHT22;48396;48.426;1.500;2023-03-01T05:22:55;5.20;60.80
62363;DHT22;48396;48.426;1.500;2023-03-01T05:25:21;5.20;60.70
62363;DHT22;48396;48.426;1.500;2023-03-01T05:27:47;5.30;60.40
62363;DHT22;48396;48.426;1.500;2023-03-01T05:30:14;5.30;60.30
62363;DHT22;48396;48.426;1.500;2023-03-01T05:32:43;5.10;60.70
62363;DHT22;48396;48.426;1.500;2023-03-01T05:35:13;4.80;61.50
62363;DHT22;48396;48.426;1.500;2023-03-01T05:37:41;4.90;61.60
62363;DHT22;48396;48.426;1.500;2023-03-01T05:40:09;4.90;61.60
62363;DHT22;48396;48.426;1.500;2023-03-01T05:42:46;4.90;61.50
62363;DHT22;48396;48.426;1.500;2023-03-01T05:45:13;5.10;61.20
62363;DHT22;48396;48.426;1.500;2023-03-01T05:47:40;5.20;60.70
62363;DHT22;48396;48.426;1.500;2023-03-01T05:50:29;5.20;60.80
62363;DHT22;48396;48.426;1.500;2023-03-01T05:53:05;5.10;60.90
62363;DHT22;48396;48.426;1.500;2023-03-01T05:55:31;5.00;61.30
62363;DHT22;48396;48.426;1.500;2023-03-01T05:58:13;5.10;61.10
62363;DHT22;48396;48.426;1.500;2023-03-01T06:00:43;5.20;60.90
62363;DHT22;48396;48.426;1.500;2023-03-01T06:03:11;5.20;60.70
62363;DHT22;48396;48.426;1.500;2023-03-01T06:05:38;5.20;60.80
62363;DHT22;48396;48.426;1.500;2023-03-01T06:08:05;5.10;60.90
62363;DHT22;48396;48.426;1.500;2023-03-01T06:10:32;5.10;61.10
62363;DHT22;48396;48.426;1.500;2023-03-01T06:12:57;4.70;62.10
62363;DHT22;48396;48.426;1.500;2023-03-01T06:15:24;4.80;62.10
62363;DHT22;48396;48.426;1.500;2023-03-01T06:17:51;4.90;61.90
62363;DHT22;48396;48.426;1.500;2023-03-01T06:20:22;5.00;61.80
62363;DHT22;48396;48.426;1.500;2023-03-01T06:22:49;5.10;61.60
62363;DHT22;48396;48.426;1.500;2023-03-01T06:25:17;5.00;61.80
62363;DHT22;48396;48.426;1.500;2023-03-01T06:27:44;5.00;61.60
62363;DHT22;48396;48.426;1.500;2023-03-01T06:30:12;4.90;61.80
62363;DHT22;48396;48.426;1.500;2023-03-01T06:32:40;5.00;62.00
62363;DHT22;48396;48.426;1.500;2023-03-01T06:35:13;5.00;61.80
62363;DHT22;48396;48.426;1.500;2023-03-01T06:37:40;5.20;61.40
62363;DHT22;48396;48.426;1.500;2023-03-01T06:40:08;5.10;61.50
62363;DHT22;48396;48.426;1.500;2023-03-01T06:42:38;5.00;61.60
62363;DHT22;48396;48.426;1.500;2023-03-01T06:45:05;5.10;61.60
62363;DHT22;48396;48.426;1.500;2023-03-01T06:47:32;4.80;62.10
62363;DHT22;48396;48.426;1.500;2023-03-01T06:50:02;4.70;62.40
62363;DHT22;48396;48.426;1.500;2023-03-01T06:52:28;4.80;62.50
62363;DHT22;48396;48.426;1.500;2023-03-01T06:54:57;4.70;62.90
62363;DHT22;48396;48.426;1.500;2023-03-01T06:57:23;4.60;63.10
62363;DHT22;48396;48.426;1.500;2023-03-01T06:59:49;4.70;63.00
62363;DHT22;48396;48.426;1.500;2023-03-01T07:02:15;4.60;63.30
62363;DHT22;48396;48.426;1.500;2023-03-01T07:04:41;4.60;63.40
62363;DHT22;48396;48.426;1.500;2023-03-01T07:07:08;4.70;63.20
62363;DHT22;48396;48.426;1.500;2023-03-01T07:09:34;5.00;62.70
62363;DHT22;48396;48.426;1.500;2023-03-01T07:12:00;5.00;62.40
62363;DHT22;48396;48.426;1.500;2023-03-01T07:14:25;5.00;62.60
62363;DHT22;48396;48.426;1.500;2023-03-01T07:16:55;5.00;62.60
62363;DHT22;48396;48.426;1.500;2023-03-01T07:19:22;4.80;63.00
62363;DHT22;48396;48.426;1.500;2023-03-01T07:21:48;4.80;63.20
62363;DHT22;48396;48.426;1.500;2023-03-01T07:24:14;4.70;63.40
62363;DHT22;48396;48.426;1.500;2023-03-01T07:26:40;4.80;63.40
62363;DHT22;48396;48.426;1.500;2023-03-01T07:29:07;4.80;63.30
62363;DHT22;48396;48.426;1.500;2023-03-01T07:31:33;4.70;63.50
62363;DHT22;48396;48.426;1.500;2023-03-01T07:33:59;4.80;63.50
62363;DHT22;48396;48.426;1.500;2023-03-01T07:36:25;4.70;63.80
62363;DHT22;48396;48.426;1.500;2023-03-01T07:38:51;4.60;64.20
62363;DHT22;48396;48.426;1.500;2023-03-01T07:41:17;4.70;64.10
62363;DHT22;48396;48.426;1.500;2023-03-01T07:43:43;4.80;63.80
62363;DHT22;48396;48.426;1.500;2023-03-01T07:46:09;5.00;63.60
62363;DHT22;48396;48.426;1.500;2023-03-01T07:48:35;5.00;63.60
62363;DHT22;48396;48.426;1.500;2023-03-01T07:51:03;5.10;63.40
62363;DHT22;48396;48.426;1.500;2023-03-01T07:53:29;5.20;63.20
62363;DHT22;48396;48.426;1.500;2023-03-01T07:56:12;5.10;63.50
62363;DHT22;48396;48.426;1.500;2023-03-01T07:58:41;4.90;63.90
62363;DHT22;48396;48.426;1.500;2023-03-01T08:01:11;5.00;63.80
62363;DHT22;48396;48.426;1.500;2023-03-01T08:03:38;5.10;63.70
62363;DHT22;48396;48.426;1.500;2023-03-01T08:06:06;5.10;63.60
62363;DHT22;48396;48.426;1.500;2023-03-01T08:08:58;5.10;63.70
62363;DHT22;48396;48.426;1.500;2023-03-01T08:11:30;5.10;64.00
62363;DHT22;48396;48.426;1.500;2023-03-01T08:13:56;4.90;64.50
62363;DHT22;48396;48.426;1.500;2023-03-01T08:19:39;4.80;65.20
62363;DHT22;48396;48.426;1.500;2023-03-01T08:22:05;4.90;65.20
62363;DHT22;48396;48.426;1.500;2023-03-01T08:24:31;4.90;65.40
62363;DHT22;48396;48.426;1.500;2023-03-01T08:37:14;5.20;64.90
62363;DHT22;48396;48.426;1.500;2023-03-01T08:43:08;5.30;65.00
62363;DHT22;48396;48.426;1.500;2023-03-01T08:49:44;5.30;64.80
62363;DHT22;48396;48.426;1.500;2023-03-01T08:52:11;5.40;64.70
62363;DHT22;48396;48.426;1.500;2023-03-01T08:54:39;5.40;64.90
62363;DHT22;48396;48.426;1.500;2023-03-01T08:57:05;5.40;64.70
62363;DHT22;48396;48.426;1.500;2023-03-01T08:59:31;5.30;65.20
62363;DHT22;48396;48.426;1.500;2023-03-01T09:02:08;5.30;65.00
62363;DHT22;48396;48.426;1.500;2023-03-01T09:04:35;5.40;65.20
62363;DHT22;48396;48.426;1.500;2023-03-01T09:07:01;5.60;64.60
62363;DHT22;48396;48.426;1.500;2023-03-01T09:09:27;5.90;64.20
62363;DHT22;48396;48.426;1.500;2023-03-01T09:11:53;5.80;64.20
62363;DHT22;48396;48.426;1.500;2023-03-01T09:14:19;6.00;63.90
62363;DHT22;48396;48.426;1.500;2023-03-01T09:16:45;6.20;63.50
62363;DHT22;48396;48.426;1.500;2023-03-01T09:19:11;6.00;63.40
62363;DHT22;48396;48.426;1.500;2023-03-01T09:21:38;5.90;63.80
62363;DHT22;48396;48.426;1.500;2023-03-01T09:24:04;6.00;64.10
62363;DHT22;48396;48.426;1.500;2023-03-01T09:26:30;6.00;64.20
62363;DHT22;48396;48.426;1.500;2023-03-01T09:28:56;6.10;64.00
62363;DHT22;48396;48.426;1.500;2023-03-01T09:31:23;6.10;63.90
62363;DHT22;48396;48.426;1.500;2023-03-01T09:33:51;6.30;63.70
62363;DHT22;48396;48.426;1.500;2023-03-01T09:36:20;6.40;63.60
62363;DHT22;48396;48.426;1.500;2023-03-01T09:38:47;6.60;63.30
62363;DHT22;48396;48.426;1.500;2023-03-01T09:41:38;6.60;63.00
62363;DHT22;48396;48.426;1.500;2023-03-01T09:46:52;6.40;63.40
62363;DHT22;48396;48.426;1.500;2023-03-01T09:49:25;6.60;63.20
62363;DHT22;48396;48.426;1.500;2023-03-01T09:52:07;6.80;63.00
62363;DHT22;48396;48.426;1.500;2023-03-01T09:54:38;6.80;62.60
62363;DHT22;48396;48.426;1.500;2023-03-01T09:59:49;7.00;62.00
62363;DHT22;48396;48.426;1.500;2023-03-01T10:02:27;7.00;61.40
62363;DHT22;48396;48.426;1.500;2023-03-01T10:05:03;7.10;61.10
62363;DHT22;48396;48.426;1.500;2023-03-01T10:10:29;7.30;60.50
62363;DHT22;48396;48.426;1.500;2023-03-01T10:12:57;7.40;59.90
62363;DHT22;48396;48.426;1.500;2023-03-01T10:15:35;7.50;59.50
62363;DHT22;48396;48.426;1.500;2023-03-01T10:18:16;7.50;59.10
62363;DHT22;48396;48.426;1.500;2023-03-01T10:20:59;7.50;59.00
62363;DHT22;48396;48.426;1.500;2023-03-01T10:23:30;7.60;58.90
62363;DHT22;48396;48.426;1.500;2023-03-01T10:29:03;7.70;58.00
62363;DHT22;48396;48.426;1.500;2023-03-01T10:31:47;7.70;58.30
62363;DHT22;48396;48.426;1.500;2023-03-01T10:36:44;7.80;57.90
62363;DHT22;48396;48.426;1.500;2023-03-01T10:39:22;7.90;57.90
62363;DHT22;48396;48.426;1.500;2023-03-01T10:42:02;8.00;57.90
62363;DHT22;48396;48.426;1.500;2023-03-01T10:44:46;7.90;57.60
62363;DHT22;48396;48.426;1.500;2023-03-01T10:47:18;8.00;57.20
62363;DHT22;48396;48.426;1.500;2023-03-01T10:50:00;8.00;57.40
62363;DHT22;48396;48.426;1.500;2023-03-01T10:52:37;8.10;57.50
62363;DHT22;48396;48.426;1.500;2023-03-01T10:57:46;8.30;57.60
62363;DHT22;48396;48.426;1.500;2023-03-01T11:00:25;8.60;57.20
62363;DHT22;48396;48.426;1.500;2023-03-01T11:05:26;8.70;56.00
62363;DHT22;48396;48.426;1.500;2023-03-01T11:07:58;8.50;55.80
62363;DHT22;48396;48.426;1.500;2023-03-01T11:10:32;8.50;56.30
62363;DHT22;48396;48.426;1.500;2023-03-01T11:15:39;8.60;55.90
62363;DHT22;48396;48.426;1.500;2023-03-01T11:18:22;8.60;56.20
62363;DHT22;48396;48.426;1.500;2023-03-01T11:20:52;8.70;55.60
62363;DHT22;48396;48.426;1.500;2023-03-01T11:23:20;8.90;55.80
62363;DHT22;48396;48.426;1.500;2023-03-01T11:26:04;8.90;55.30
62363;DHT22;48396;48.426;1.500;2023-03-01T11:28:34;8.70;55.30
62363;DHT22;48396;48.426;1.500;2023-03-01T11:31:03;8.80;55.50
62363;DHT22;48396;48.426;1.500;2023-03-01T11:33:45;8.70;55.50
62363;DHT22;48396;48.426;1.500;2023-03-01T11:42:02;9.20;54.90
62363;DHT22;48396;48.426;1.500;2023-03-01T11:44:33;9.10;54.80
62363;DHT22;48396;48.426;1.500;2023-03-01T11:50:00;9.20;54.80
62363;DHT22;48396;48.426;1.500;2023-03-01T12:06:32;9.60;53.60
62363;DHT22;48396;48.426;1.500;2023-03-01T12:26:36;9.70;53.10
62363;DHT22;48396;48.426;1.500;2023-03-01T12:34:59;10.10;53.00
62363;DHT22;48396;48.426;1.500;2023-03-01T12:50:38;10.60;52.60
62363;DHT22;48396;48.426;1.500;2023-03-01T12:53:05;10.70;52.40
62363;DHT22;48396;48.426;1.500;2023-03-01T12:55:37;10.70;52.40
62363;DHT22;48396;48.426;1.500;2023-03-01T12:58:32;10.80;52.50
62363;DHT22;48396;48.426;1.500;2023-03-01T13:06:23;10.80;51.90
62363;DHT22;48396;48.426;1.500;2023-03-01T13:09:03;10.80;52.00
62363;DHT22;48396;48.426;1.500;2023-03-01T13:11:30;10.80;52.20
62363;DHT22;48396;48.426;1.500;2023-03-01T13:16:50;10.70;52.10
62363;DHT22;48396;48.426;1.500;2023-03-01T13:19:23;10.60;52.30
62363;DHT22;48396;48.426;1.500;2023-03-01T13:21:52;10.70;52.40
62363;DHT22;48396;48.426;1.500;2023-03-01T13:24:41;10.80;52.60
62363;DHT22;48396;48.426;1.500;2023-03-01T13:27:19;10.90;52.40
62363;DHT22;48396;48.426;1.500;2023-03-01T13:29:54;10.90;52.70
62363;DHT22;48396;48.426;1.500;2023-03-01T13:34:57;10.90;52.10
62363;DHT22;48396;48.426;1.500;2023-03-01T13:37:26;11.20;51.90
62363;DHT22;48396;48.426;1.500;2023-03-01T13:39:56;11.30;51.90
62363;DHT22;48396;48.426;1.500;2023-03-01T13:42:43;11.40;51.80
62363;DHT22;48396;48.426;1.500;2023-03-01T13:47:58;11.40;50.30
62363;DHT22;48396;48.426;1.500;2023-03-01T13:50:29;11.20;51.10
62363;DHT22;48396;48.426;1.500;2023-03-01T13:53:03;11.20;51.20
62363;DHT22;48396;48.426;1.500;2023-03-01T13:55:46;11.20;51.00
62363;DHT22;48396;48.426;1.500;2023-03-01T13:58:25;11.20;50.90
62363;DHT22;48396;48.426;1.500;2023-03-01T14:00:59;11.30;51.10
62363;DHT22;48396;48.426;1.500;2023-03-01T14:03:27;11.30;51.10
62363;DHT22;48396;48.426;1.500;2023-03-01T14:08:35;11.30;51.10
62363;DHT22;48396;48.426;1.500;2023-03-01T14:11:57;11.20;51.00
62363;DHT22;48396;48.426;1.500;2023-03-01T14:19:26;11.00;51.10
62363;DHT22;48396;48.426;1.500;2023-03-01T14:22:20;11.20;51.20
62363;DHT22;48396;48.426;1.500;2023-03-01T14:24:52;11.30;51.20
62363;DHT22;48396;48.426;1.500;2023-03-01T14:27:19;11.40;51.30
62363;DHT22;48396;48.426;1.500;2023-03-01T14:29:56;11.40;51.10
62363;DHT22;48396;48.426;1.500;2023-03-01T14:32:25;11.30;51.20
62363;DHT22;48396;48.426;1.500;2023-03-01T14:34:52;11.40;51.40
62363;DHT22;48396;48.426;1.500;2023-03-01T14:39:47;11.50;50.80
62363;DHT22;48396;48.426;1.500;2023-03-01T14:42:14;11.70;51.00
62363;DHT22;48396;48.426;1.500;2023-03-01T14:44:43;11.80;50.40
62363;DHT22;48396;48.426;1.500;2023-03-01T14:47:19;11.80;50.60
62363;DHT22;48396;48.426;1.500;2023-03-01T14:49:54;12.10;50.70
62363;DHT22;48396;48.426;1.500;2023-03-01T14:52:25;12.20;50.40
62363;DHT22;48396;48.426;1.500;2023-03-01T14:54:54;12.10;50.50
62363;DHT22;48396;48.426;1.500;2023-03-01T14:57:25;12.10;50.60
62363;DHT22;48396;48.426;1.500;2023-03-01T14:59:53;12.10;50.60
62363;DHT22;48396;48.426;1.500;2023-03-01T15:02:23;12.00;50.40
62363;DHT22;48396;48.426;1.500;2023-03-01T15:04:55;12.00;50.70
62363;DHT22;48396;48.426;1.500;2023-03-01T15:07:29;12.30;50.70
62363;DHT22;48396;48.426;1.500;2023-03-01T15:09:56;12.50;50.20
62363;DHT22;48396;48.426;1.500;2023-03-01T15:12:34;12.50;50.00
62363;DHT22;48396;48.426;1.500;2023-03-01T15:15:00;12.70;49.80
62363;DHT22;48396;48.426;1.500;2023-03-01T15:17:38;12.70;50.00
62363;DHT22;48396;48.426;1.500;2023-03-01T15:20:14;12.90;49.70
62363;DHT22;48396;48.426;1.500;2023-03-01T15:22:44;12.90;49.60
62363;DHT22;48396;48.426;1.500;2023-03-01T15:25:22;12.80;49.80
62363;DHT22;48396;48.426;1.500;2023-03-01T15:27:50;12.70;49.20
62363;DHT22;48396;48.426;1.500;2023-03-01T15:32:48;12.90;49.70
62363;DHT22;48396;48.426;1.500;2023-03-01T15:35:42;13.10;49.40
62363;DHT22;48396;48.426;1.500;2023-03-01T15:41:02;13.10;49.20
62363;DHT22;48396;48.426;1.500;2023-03-01T15:43:45;12.80;49.20
62363;DHT22;48396;48.426;1.500;2023-03-01T15:46:31;12.90;49.30
62363;DHT22;48396;48.426;1.500;2023-03-01T15:49:03;12.80;49.30
62363;DHT22;48396;48.426;1.500;2023-03-01T15:51:33;12.80;49.50
62363;DHT22;48396;48.426;1.500;2023-03-01T15:54:03;13.10;49.60
62363;DHT22;48396;48.426;1.500;2023-03-01T15:56:30;13.30;49.20
62363;DHT22;48396;48.426;1.500;2023-03-01T15:59:00;13.30;48.70
62363;DHT22;48396;48.426;1.500;2023-03-01T16:01:28;13.20;49.10
62363;DHT22;48396;48.426;1.500;2023-03-01T16:03:54;13.10;49.00
62363;DHT22;48396;48.426;1.500;2023-03-01T16:06:20;13.10;48.90
62363;DHT22;48396;48.426;1.500;2023-03-01T16:08:45;13.20;49.00
62363;DHT22;48396;48.426;1.500;2023-03-01T16:11:18;13.20;48.90
62363;DHT22;48396;48.426;1.500;2023-03-01T16:13:45;13.30;48.80
62363;DHT22;48396;48.426;1.500;2023-03-01T16:16:11;13.20;48.70
62363;DHT22;48396;48.426;1.500;2023-03-01T16:18:47;13.20;48.90
62363;DHT22;48396;48.426;1.500;2023-03-01T16:21:22;13.00;49.20
62363;DHT22;48396;48.426;1.500;2023-03-01T16:23:48;13.20;49.20
62363;DHT22;48396;48.426;1.500;2023-03-01T16:26:14;13.00;49.10
62363;DHT22;48396;48.426;1.500;2023-03-01T16:28:41;12.90;49.10
62363;DHT22;48396;48.426;1.500;2023-03-01T16:31:07;13.00;49.80
62363;DHT22;48396;48.426;1.500;2023-03-01T16:33:34;12.80;49.30
62363;DHT22;48396;48.426;1.500;2023-03-01T16:36:21;12.80;49.40
62363;DHT22;48396;48.426;1.500;2023-03-01T16:38:50;12.70;49.30
62363;DHT22;48396;48.426;1.500;2023-03-01T16:41:18;12.80;49.40
62363;DHT22;48396;48.426;1.500;2023-03-01T16:43:44;12.80;49.40
62363;DHT22;48396;48.426;1.500;2023-03-01T16:46:28;12.90;49.20
62363;DHT22;48396;48.426;1.500;2023-03-01T16:48:55;12.80;49.20
62363;DHT22;48396;48.426;1.500;2023-03-01T16:51:22;12.70;49.30
62363;DHT22;48396;48.426;1.500;2023-03-01T16:53:48;12.60;49.70
62363;DHT22;48396;48.426;1.500;2023-03-01T16:56:14;12.60;49.70
62363;DHT22;48396;48.426;1.500;2023-03-01T16:58:42;12.60;49.80
62363;DHT22;48396;48.426;1.500;2023-03-01T17:03:37;12.40;50.10
62363;DHT22;48396;48.426;1.500;2023-03-01T17:06:05;12.40;50.10
62363;DHT22;48396;48.426;1.500;2023-03-01T17:08:31;12.30;50.20
62363;DHT22;48396;48.426;1.500;2023-03-01T17:11:05;12.30;51.00
62363;DHT22;48396;48.426;1.500;2023-03-01T17:13:31;12.10;50.60
62363;DHT22;48396;48.426;1.500;2023-03-01T17:15:57;12.10;50.70
62363;DHT22;48396;48.426;1.500;2023-03-01T17:18:23;12.00;50.90
62363;DHT22;48396;48.426;1.500;2023-03-01T17:20:49;11.80;51.20
62363;DHT22;48396;48.426;1.500;2023-03-01T17:23:15;11.70;51.30
62363;DHT22;48396;48.426;1.500;2023-03-01T17:25:42;11.40;51.70
62363;DHT22;48396;48.426;1.500;2023-03-01T17:28:10;11.30;52.00
62363;DHT22;48396;48.426;1.500;2023-03-01T17:30:36;11.40;51.80
62363;DHT22;48396;48.426;1.500;2023-03-01T17:33:02;11.50;51.80
62363;DHT22;48396;48.426;1.500;2023-03-01T17:35:28;11.50;51.60
62363;DHT22;48396;48.426;1.500;2023-03-01T17:37:54;11.50;51.80
62363;DHT22;48396;48.426;1.500;2023-03-01T17:40:19;11.50;51.80
62363;DHT22;48396;48.426;1.500;2023-03-01T17:42:45;11.30;52.10
62363;DHT22;48396;48.426;1.500;2023-03-01T17:45:11;11.10;52.60
62363;DHT22;48396;48.426;1.500;2023-03-01T17:47:37;11.00;52.60
62363;DHT22;48396;48.426;1.500;2023-03-01T17:50:03;11.00;52.80
62363;DHT22;48396;48.426;1.500;2023-03-01T17:52:30;11.00;52.60
62363;DHT22;48396;48.426;1.500;2023-03-01T17:54:56;11.00;52.60
62363;DHT22;48396;48.426;1.500;2023-03-01T17:57:21;10.90;52.80
62363;DHT22;48396;48.426;1.500;2023-03-01T17:59:47;10.80;52.80
62363;DHT22;48396;48.426;1.500;2023-03-01T18:02:13;10.90;52.80
62363;DHT22;48396;48.426;1.500;2023-03-01T18:04:39;10.80;52.80
62363;DHT22;48396;48.426;1.500;2023-03-01T18:07:04;10.70;53.00
62363;DHT22;48396;48.426;1.500;2023-03-01T18:09:30;10.70;53.00
62363;DHT22;48396;48.426;1.500;2023-03-01T18:11:56;10.60;53.20
62363;DHT22;48396;48.426;1.500;2023-03-01T18:14:23;10.50;53.30
62363;DHT22;48396;48.426;1.500;2023-03-01T18:16:50;10.30;53.70